Airfield :
LOGIN :

Register | Disclaimer

   EN    FR    IT 

 










Legend :    VFR   Marginal VFR   IFR   Intensive IFR   Very Intensive IFR
Visi :
Ceiling :
>= 8 km
>= 3000ft
5 to 8 km
1000 to 3000 ft
1500m to 5 km
500 to 1000 ft
800 to 1500m
200 to 500 ft
< 800m
< 200 ft
Symbols :   Thunderstorms  Fog  Heavy snow  Heavy precipitations  Wind > 20 kt
SIGMETs :     Misc.  Thunderstorms  Icing  Turbulence  Mountain Waves  Volcanic Ashes






- Airport Elevation : 17 ft
- IATA code : GRQ


EHGG - Groningen Eelde

CURRENT METAR :
  • 162355Z AUTO 17007KT 140V200 3500 BR SCT006 BKN008 BKN009 M01/M01 Q1015

EXPIRED METARs :
  • 162325Z AUTO 17007KT 140V200 4600 BR FEW006 BKN008 BKN009 M01/M01 Q1015 REFZRA
  • 162255Z AUTO 17007KT 140V200 5000 BR FEW007 BKN008 OVC009 M01/M01 Q1015
  • 162225Z AUTO 17008KT 140V200 4800 BR SCT006 BKN008 OVC009 M01/M01 Q1016
  • 162155Z AUTO 17009KT 140V200 4200 -SN FEW007 BKN008 BKN009 M01/M01 Q1016 TEMPO 6000 NSW
  • 162125Z AUTO 17008KT 140V200 6000 FEW006 SCT008 BKN009 M01/M01 Q1016 TEMPO 4000 BR

TAF COR TAF EHGG
Valid from the 17 at 00:00 until the 18 at 06:00 UTC


162327Z 1700/1806 19009KT 6000 BKN008
TEMPO 1700/1711 2500 -SNRA -DZRA BKN004
PROB30
TEMPO 1700/1711 -FZDZ
PROB40
TEMPO 1702/1709 1200 -SN BKN002
BECMG 1712/1715 29010KT 9999 NSW BKN025
PROB40
TEMPO 1712/1724 7000 -SHRA SCT020TCU BKN025
PROB40 1718/1806 4000 BR



MET'MAP, your aeronautical weather chart ! - Copyright ORBIFLY December 2007 - Disclaimer

ORBIFLY MET'MAP TEAM :

Programming & Development : Alexandra Zaïnal
Concept & original design : Baudouin d'Aumeries
Assistance for programming : Marc-Olivier Méhu
Technical & hardware support : Manuel Goepfert

Contact : metmap@orbifly.com




SOURCES & CREDITS :

   NOAA